createdAt,value
2022-10-14T00:01:11.845Z,16.72
2022-10-14T00:03:39.306Z,16.72
2022-10-14T00:06:08.044Z,16.71
2022-10-14T00:08:34.845Z,16.72
2022-10-14T00:11:20.769Z,16.70
2022-10-14T00:13:57.998Z,16.70
2022-10-14T00:16:29.361Z,16.70
2022-10-14T00:18:57.002Z,16.69
2022-10-14T00:21:26.017Z,16.69
2022-10-14T00:23:52.751Z,16.69
2022-10-14T00:26:25.619Z,16.67
2022-10-14T00:28:52.576Z,16.67
2022-10-14T00:31:20.180Z,16.67
2022-10-14T00:33:48.210Z,16.66
2022-10-14T00:36:17.469Z,16.64
2022-10-14T00:38:45.711Z,16.65
2022-10-14T00:41:18.948Z,16.64
2022-10-14T00:44:15.573Z,16.64
2022-10-14T00:46:44.247Z,16.62
2022-10-14T00:49:29.123Z,16.61
2022-10-14T00:52:02.839Z,16.60
2022-10-14T00:54:34.973Z,16.59
2022-10-14T00:57:02.371Z,16.58
2022-10-14T00:59:29.424Z,16.57
2022-10-14T01:01:56.141Z,16.57
2022-10-14T01:04:24.897Z,16.56
2022-10-14T01:07:28.949Z,16.56
2022-10-14T01:10:22.064Z,16.55
2022-10-14T01:13:18.120Z,16.53
2022-10-14T01:16:03.577Z,16.54
2022-10-14T01:19:01.166Z,16.52
2022-10-14T01:21:37.868Z,16.49
2022-10-14T01:24:37.225Z,16.49
2022-10-14T01:27:17.447Z,16.48
2022-10-14T01:30:06.154Z,16.48
2022-10-14T01:32:51.160Z,16.48
2022-10-14T01:35:24.225Z,16.45
2022-10-14T01:38:08.723Z,16.45
2022-10-14T01:40:58.497Z,16.47
2022-10-14T01:43:27.688Z,16.48
2022-10-14T01:45:55.830Z,16.47
2022-10-14T01:48:26.354Z,16.46
2022-10-14T01:50:52.968Z,16.56
2022-10-14T01:53:25.359Z,16.48
2022-10-14T01:55:54.206Z,16.46
2022-10-14T01:58:25.841Z,16.43
2022-10-14T02:00:53.798Z,16.45
2022-10-14T02:03:20.474Z,16.44
2022-10-14T02:05:52.668Z,16.44
2022-10-14T02:08:50.332Z,16.45
2022-10-14T02:11:18.233Z,16.44
2022-10-14T02:14:12.998Z,16.45
2022-10-14T02:16:56.055Z,16.43
2022-10-14T02:19:59.868Z,16.43
2022-10-14T02:22:31.763Z,16.43
2022-10-14T02:25:13.503Z,16.42
2022-10-14T02:27:43.215Z,16.42
2022-10-14T02:30:11.346Z,16.44
2022-10-14T02:32:39.032Z,16.43
2022-10-14T02:35:06.930Z,16.43
2022-10-14T02:37:33.980Z,16.43
2022-10-14T02:40:07.513Z,16.42
2022-10-14T02:42:34.776Z,16.42
2022-10-14T02:45:05.072Z,16.43
2022-10-14T02:47:31.880Z,16.43
2022-10-14T02:49:58.559Z,16.42
2022-10-14T02:52:25.303Z,16.42
2022-10-14T02:54:53.084Z,16.41
2022-10-14T02:57:19.795Z,16.41
2022-10-14T02:59:48.348Z,16.40
2022-10-14T03:02:15.151Z,16.40
2022-10-14T03:04:42.123Z,16.39
2022-10-14T03:07:09.695Z,16.38
2022-10-14T03:09:42.271Z,16.38
2022-10-14T03:12:10.184Z,16.36
2022-10-14T03:14:37.185Z,16.36
2022-10-14T03:17:05.672Z,16.36
2022-10-14T03:19:33.907Z,16.35
2022-10-14T03:22:00.877Z,16.34
2022-10-14T03:24:27.583Z,16.33
2022-10-14T03:27:16.761Z,16.32
2022-10-14T03:29:46.395Z,16.31
2022-10-14T03:32:19.299Z,16.29
2022-10-14T03:35:06.724Z,16.30
2022-10-14T03:37:33.611Z,16.27
2022-10-14T03:40:00.672Z,16.26
2022-10-14T03:42:27.558Z,16.24
2022-10-14T03:44:55.119Z,16.26
2022-10-14T03:47:26.247Z,16.23
2022-10-14T03:49:56.351Z,16.23
2022-10-14T03:52:37.664Z,16.22
2022-10-14T03:55:14.875Z,16.22
2022-10-14T03:57:43.399Z,16.20
2022-10-14T04:00:11.355Z,16.19
2022-10-14T04:02:41.190Z,16.20
2022-10-14T04:05:18.921Z,16.19
2022-10-14T04:07:48.432Z,16.18
2022-10-14T04:10:15.256Z,16.16
2022-10-14T04:12:48.468Z,16.16
2022-10-14T04:15:31.169Z,16.16
2022-10-14T04:18:08.302Z,16.16
2022-10-14T04:20:37.732Z,16.13
2022-10-14T04:23:05.304Z,16.14
2022-10-14T04:25:34.278Z,16.14
2022-10-14T04:28:03.647Z,16.13
2022-10-14T04:30:43.144Z,16.13
2022-10-14T04:33:16.199Z,16.13
2022-10-14T04:35:43.000Z,16.11
2022-10-14T04:38:19.652Z,16.13
2022-10-14T04:40:53.544Z,16.11
2022-10-14T04:43:21.005Z,16.10
2022-10-14T04:45:48.144Z,16.10
2022-10-14T04:48:22.379Z,16.10
2022-10-14T04:50:53.529Z,16.10
2022-10-14T04:53:55.588Z,16.10
2022-10-14T04:56:32.883Z,16.11
2022-10-14T04:59:02.236Z,16.10
2022-10-14T05:02:07.435Z,16.10
2022-10-14T05:04:47.049Z,16.09
2022-10-14T05:07:14.933Z,16.09
2022-10-14T05:09:46.251Z,16.09
2022-10-14T05:12:24.619Z,16.10
2022-10-14T05:14:56.817Z,16.10
2022-10-14T05:17:30.821Z,16.11
2022-10-14T05:19:57.853Z,16.09
2022-10-14T05:22:26.806Z,16.10
2022-10-14T05:24:53.689Z,16.11
2022-10-14T05:27:20.536Z,16.11
2022-10-14T05:29:48.888Z,16.12
2022-10-14T05:32:16.544Z,16.13
2022-10-14T05:34:48.536Z,16.14
2022-10-14T05:37:27.549Z,16.14
2022-10-14T05:39:55.635Z,16.16
2022-10-14T05:42:25.895Z,16.16
2022-10-14T05:44:55.795Z,16.15
2022-10-14T05:47:24.004Z,15.98
2022-10-14T05:49:56.460Z,15.88
2022-10-14T05:52:24.374Z,15.76
2022-10-14T05:54:51.806Z,15.63
2022-10-14T05:57:23.089Z,15.54
2022-10-14T05:59:49.824Z,15.43
2022-10-14T06:02:16.660Z,15.39
2022-10-14T06:04:45.463Z,15.36
2022-10-14T06:07:13.381Z,15.34
2022-10-14T06:09:40.593Z,15.34
2022-10-14T06:12:09.812Z,15.32
2022-10-14T06:14:38.638Z,15.32
2022-10-14T06:17:06.271Z,15.33
2022-10-14T06:19:35.620Z,15.33
2022-10-14T06:22:02.407Z,15.34
2022-10-14T06:24:29.478Z,15.24
2022-10-14T06:26:57.391Z,15.09
2022-10-14T06:29:26.418Z,15.10
2022-10-14T06:31:53.207Z,15.13
2022-10-14T06:34:23.061Z,15.17
2022-10-14T06:36:49.906Z,15.21
2022-10-14T06:39:16.579Z,15.21
2022-10-14T06:41:44.520Z,15.30
2022-10-14T06:44:18.822Z,15.39
2022-10-14T06:46:45.532Z,15.44
2022-10-14T06:49:12.188Z,15.51
2022-10-14T06:51:39.803Z,15.56
2022-10-14T06:54:08.087Z,15.60
2022-10-14T06:56:35.016Z,15.66
2022-10-14T06:59:01.766Z,15.73
2022-10-14T07:01:28.672Z,15.73
2022-10-14T07:03:56.747Z,15.76
2022-10-14T07:06:24.039Z,15.87
2022-10-14T07:08:50.664Z,15.95
2022-10-14T07:11:17.391Z,16.03
2022-10-14T07:13:46.151Z,16.08
2022-10-14T07:16:13.003Z,16.11
2022-10-14T07:18:40.567Z,16.20
2022-10-14T07:21:08.918Z,16.26
2022-10-14T07:23:35.557Z,16.34
2022-10-14T07:26:02.648Z,16.46
2022-10-14T07:28:29.592Z,16.56
2022-10-14T07:31:09.905Z,16.61
2022-10-14T07:36:12.323Z,16.68
2022-10-14T07:38:39.140Z,16.76
2022-10-14T07:41:16.940Z,16.87
2022-10-14T07:43:53.049Z,16.93
2022-10-14T07:46:33.068Z,16.97
2022-10-14T07:49:05.873Z,17.03
2022-10-14T07:51:33.724Z,17.09
2022-10-14T07:54:01.910Z,17.19
2022-10-14T07:56:28.950Z,17.10
2022-10-14T07:58:55.687Z,17.19
2022-10-14T08:01:24.291Z,17.33
2022-10-14T08:03:52.036Z,17.48
2022-10-14T08:06:18.987Z,17.55
2022-10-14T08:08:45.686Z,17.61
2022-10-14T08:11:15.635Z,17.50
2022-10-14T08:13:45.274Z,17.57
2022-10-14T08:16:20.326Z,17.67
2022-10-14T08:18:47.724Z,17.72
2022-10-14T08:21:15.069Z,17.81
2022-10-14T08:23:41.977Z,17.88
2022-10-14T08:26:38.357Z,17.88
2022-10-14T08:29:10.836Z,17.85
2022-10-14T08:31:38.062Z,17.91
2022-10-14T08:34:04.780Z,17.98
2022-10-14T08:36:31.678Z,17.94
2022-10-14T08:38:58.723Z,17.88
2022-10-14T08:41:36.419Z,17.89
2022-10-14T08:44:41.906Z,17.93
2022-10-14T08:47:14.154Z,17.90
2022-10-14T08:49:43.449Z,17.97
2022-10-14T08:52:37.778Z,18.04
2022-10-14T08:55:34.005Z,18.09
2022-10-14T08:58:08.963Z,17.99
2022-10-14T09:00:41.259Z,17.98
2022-10-14T09:03:16.961Z,17.96
2022-10-14T09:05:43.859Z,17.91
2022-10-14T09:08:15.240Z,17.89
2022-10-14T09:10:42.899Z,17.93
2022-10-14T09:13:19.136Z,17.98
2022-10-14T09:15:48.687Z,18.06
2022-10-14T09:18:15.389Z,18.00
2022-10-14T09:20:42.328Z,17.98
2022-10-14T09:23:20.606Z,17.93
2022-10-14T09:25:54.796Z,17.93
2022-10-14T09:28:36.456Z,18.00
2022-10-14T09:31:04.570Z,18.13
2022-10-14T09:33:31.427Z,18.14
2022-10-14T09:38:26.355Z,18.39
2022-10-14T09:40:58.988Z,18.59
2022-10-14T09:43:28.949Z,18.68
2022-10-14T09:45:57.000Z,18.69
2022-10-14T09:48:26.642Z,18.67
2022-10-14T09:50:55.842Z,18.83
2022-10-14T09:53:31.718Z,19.03
2022-10-14T09:56:04.075Z,19.35
2022-10-14T09:58:53.713Z,19.64
2022-10-14T10:01:22.687Z,19.61
2022-10-14T10:03:51.454Z,19.62
2022-10-14T10:06:29.740Z,19.76
2022-10-14T10:09:00.103Z,19.81
2022-10-14T10:11:28.258Z,19.80
2022-10-14T10:13:55.486Z,19.76
2022-10-14T10:16:23.864Z,19.83
2022-10-14T10:18:52.487Z,19.66
2022-10-14T10:21:26.501Z,19.41
2022-10-14T10:24:03.687Z,19.28
2022-10-14T10:26:33.462Z,19.15
2022-10-14T10:29:02.953Z,19.14
2022-10-14T10:31:37.782Z,19.01
2022-10-14T10:34:16.699Z,18.92
2022-10-14T10:36:48.271Z,18.94
2022-10-14T10:39:24.634Z,18.96
2022-10-14T10:42:27.103Z,18.98
2022-10-14T10:45:16.131Z,18.89
2022-10-14T10:48:00.168Z,18.95
2022-10-14T10:51:11.852Z,18.87
2022-10-14T10:54:02.898Z,18.85
2022-10-14T10:56:49.429Z,18.92
2022-10-14T10:59:37.265Z,18.93
2022-10-14T11:02:27.466Z,18.88
2022-10-14T11:05:13.149Z,18.92
2022-10-14T11:08:04.399Z,18.94
2022-10-14T11:11:02.106Z,18.73
2022-10-14T11:13:38.531Z,18.60
2022-10-14T11:16:10.761Z,18.49
2022-10-14T11:18:47.596Z,18.44
2022-10-14T11:21:22.081Z,18.45
2022-10-14T11:24:00.142Z,18.51
2022-10-14T11:26:57.508Z,18.58
2022-10-14T11:29:48.744Z,18.50
2022-10-14T11:32:18.338Z,18.40
2022-10-14T11:35:09.593Z,18.38
2022-10-14T11:37:51.340Z,18.43
2022-10-14T11:40:29.013Z,18.47
2022-10-14T11:43:26.651Z,18.59
2022-10-14T11:45:58.470Z,18.67
2022-10-14T11:48:43.798Z,18.72
2022-10-14T11:51:25.192Z,18.73
2022-10-14T11:53:58.969Z,18.65
2022-10-14T11:56:29.703Z,18.64
2022-10-14T11:58:59.635Z,18.68
2022-10-14T12:01:34.188Z,18.77
2022-10-14T12:04:10.420Z,18.84
2022-10-14T12:06:50.051Z,18.87
2022-10-14T12:09:32.181Z,18.94
2022-10-14T12:12:04.284Z,18.88
2022-10-14T12:14:37.095Z,18.90
2022-10-14T12:17:35.338Z,19.16
2022-10-14T12:20:16.862Z,19.09
2022-10-14T12:22:44.388Z,19.15
2022-10-14T12:25:17.258Z,19.19
2022-10-14T12:27:44.181Z,19.21
2022-10-14T12:30:32.938Z,18.97
2022-10-14T12:33:09.463Z,18.77
2022-10-14T12:35:59.991Z,18.64
2022-10-14T12:38:29.123Z,18.59
2022-10-14T12:41:36.140Z,18.63
2022-10-14T12:44:04.311Z,18.71
2022-10-14T12:46:31.507Z,18.81
2022-10-14T12:49:00.450Z,18.87
2022-10-14T12:51:28.218Z,18.86
2022-10-14T12:54:00.129Z,18.75
2022-10-14T12:56:32.007Z,18.67
2022-10-14T12:59:01.354Z,18.72
2022-10-14T13:01:31.036Z,18.84
2022-10-14T13:04:19.940Z,18.89
2022-10-14T13:07:35.699Z,18.86
2022-10-14T13:10:45.979Z,18.84
2022-10-14T13:13:31.895Z,18.94
2022-10-14T13:16:01.445Z,18.81
2022-10-14T13:18:31.596Z,18.68
2022-10-14T13:20:58.457Z,18.65
2022-10-14T13:23:30.438Z,18.74
2022-10-14T13:26:15.953Z,18.79
2022-10-14T13:28:51.815Z,18.88
2022-10-14T13:31:43.478Z,18.84
2022-10-14T13:34:47.922Z,18.80
2022-10-14T13:37:35.185Z,18.68
2022-10-14T13:42:55.548Z,18.81
2022-10-14T13:45:28.361Z,18.92
2022-10-14T13:47:55.179Z,19.03
2022-10-14T13:50:24.219Z,19.06
2022-10-14T13:52:59.487Z,19.16
2022-10-14T13:55:28.447Z,19.20
2022-10-14T13:58:18.540Z,19.17
2022-10-14T14:00:49.895Z,19.17
2022-10-14T14:03:25.817Z,19.17
2022-10-14T14:05:53.529Z,19.20
2022-10-14T14:08:40.561Z,19.15
2022-10-14T14:11:17.211Z,19.19
2022-10-14T14:14:05.023Z,19.22
2022-10-14T14:16:41.184Z,19.20
2022-10-14T14:19:30.776Z,19.24
2022-10-14T14:22:27.260Z,19.36
2022-10-14T14:25:38.146Z,19.54
2022-10-14T14:28:13.575Z,19.70
2022-10-14T14:30:42.580Z,19.82
2022-10-14T14:33:16.051Z,19.92
2022-10-14T14:36:22.266Z,19.93
2022-10-14T14:39:01.128Z,19.78
2022-10-14T14:41:30.059Z,19.72
2022-10-14T14:44:20.918Z,19.70
2022-10-14T14:46:45.594Z,19.67
2022-10-14T14:49:16.532Z,19.58
2022-10-14T14:51:44.023Z,19.38
2022-10-14T14:54:17.592Z,19.31
2022-10-14T14:56:50.860Z,19.25
2022-10-14T14:59:28.576Z,19.23
2022-10-14T15:01:57.058Z,19.22
2022-10-14T15:04:28.688Z,19.15
2022-10-14T15:07:21.122Z,19.09
2022-10-14T15:09:53.841Z,18.95
2022-10-14T15:12:30.755Z,18.94
2022-10-14T15:15:05.689Z,18.92
2022-10-14T15:17:40.667Z,18.94
2022-10-14T15:20:07.398Z,18.87
2022-10-14T15:22:38.995Z,18.81
2022-10-14T15:25:25.318Z,18.76
2022-10-14T15:27:53.521Z,18.71
2022-10-14T15:30:23.391Z,18.61
2022-10-14T15:32:52.198Z,18.48
2022-10-14T15:35:20.914Z,18.37
2022-10-14T15:37:49.345Z,18.27
2022-10-14T15:40:19.185Z,18.09
2022-10-14T15:42:47.155Z,18.15
2022-10-14T15:45:14.395Z,18.13
2022-10-14T15:47:41.293Z,18.14
2022-10-14T15:50:19.928Z,18.16
2022-10-14T15:52:53.867Z,18.14
2022-10-14T15:55:26.009Z,18.12
2022-10-14T15:57:53.056Z,18.12
2022-10-14T16:00:21.412Z,18.10
2022-10-14T16:02:51.071Z,18.08
2022-10-14T16:05:20.380Z,18.09
2022-10-14T16:07:48.443Z,17.99
2022-10-14T16:10:20.411Z,17.74
2022-10-14T16:12:47.209Z,17.59
2022-10-14T16:15:27.276Z,17.54
2022-10-14T16:17:54.163Z,17.51
2022-10-14T16:20:21.499Z,17.44
2022-10-14T16:22:48.623Z,17.36
2022-10-14T16:25:33.643Z,17.37
2022-10-14T16:28:00.676Z,17.40
2022-10-14T16:30:28.138Z,17.33
2022-10-14T16:32:55.826Z,17.37
2022-10-14T16:35:22.538Z,17.33
2022-10-14T16:37:49.360Z,17.23
2022-10-14T16:40:16.204Z,17.34
2022-10-14T16:42:42.926Z,17.32
2022-10-14T16:45:10.099Z,17.20
2022-10-14T16:47:38.136Z,17.19
2022-10-14T16:50:06.958Z,17.32
2022-10-14T16:52:54.510Z,17.47
2022-10-14T16:55:22.563Z,17.63
2022-10-14T16:57:49.408Z,17.72
2022-10-14T17:02:48.514Z,17.89
2022-10-14T17:05:15.577Z,17.95
2022-10-14T17:07:43.396Z,18.00
2022-10-14T17:10:10.823Z,18.05
2022-10-14T17:12:38.013Z,18.09
2022-10-14T17:15:05.719Z,18.14
2022-10-14T17:17:32.719Z,18.17
2022-10-14T17:19:59.423Z,18.20
2022-10-14T17:22:27.031Z,18.22
2022-10-14T17:24:54.943Z,18.25
2022-10-14T17:27:24.229Z,18.29
2022-10-14T17:29:52.019Z,18.40
2022-10-14T17:32:18.914Z,18.37
2022-10-14T17:34:45.920Z,18.37
2022-10-14T17:37:12.681Z,18.36
2022-10-14T17:39:39.437Z,18.38
2022-10-14T17:42:06.130Z,18.40
2022-10-14T17:44:33.352Z,18.41
2022-10-14T17:47:01.347Z,18.42
2022-10-14T17:49:31.104Z,18.46
2022-10-14T17:52:02.164Z,18.48
2022-10-14T17:54:32.100Z,18.48
2022-10-14T17:56:58.771Z,18.50
2022-10-14T17:59:25.527Z,18.50
2022-10-14T18:02:07.562Z,18.51
2022-10-14T18:04:34.467Z,18.53
2022-10-14T18:07:01.580Z,18.54
2022-10-14T18:09:28.423Z,18.55
2022-10-14T18:12:10.797Z,18.56
2022-10-14T18:14:38.668Z,18.57
2022-10-14T18:17:05.742Z,18.58
2022-10-14T18:19:32.897Z,18.58
2022-10-14T18:22:00.400Z,18.58
2022-10-14T18:24:27.235Z,18.59
2022-10-14T18:26:53.971Z,18.61
2022-10-14T18:29:20.945Z,18.61
2022-10-14T18:31:49.506Z,18.62
2022-10-14T18:34:16.395Z,18.63
2022-10-14T18:36:43.052Z,18.62
2022-10-14T18:39:13.128Z,18.60
2022-10-14T18:41:39.900Z,18.63
2022-10-14T18:44:06.795Z,18.62
2022-10-14T18:46:35.679Z,18.63
2022-10-14T18:49:04.313Z,18.61
2022-10-14T18:51:34.915Z,18.62
2022-10-14T18:54:07.526Z,18.62
2022-10-14T18:56:38.216Z,18.64
2022-10-14T18:59:09.011Z,18.65
2022-10-14T19:01:37.291Z,18.66
2022-10-14T19:04:06.304Z,18.65
2022-10-14T19:06:34.204Z,18.65
2022-10-14T19:09:01.864Z,18.67
2022-10-14T19:11:30.686Z,18.67
2022-10-14T19:13:59.153Z,18.67
2022-10-14T19:16:28.227Z,18.67
2022-10-14T19:18:56.806Z,18.66
2022-10-14T19:21:26.774Z,18.67
2022-10-14T19:23:53.561Z,18.67
2022-10-14T19:26:22.521Z,18.69
2022-10-14T19:28:49.986Z,18.70
2022-10-14T19:31:18.852Z,18.70
2022-10-14T19:33:46.193Z,18.70
2022-10-14T19:36:15.417Z,18.69
2022-10-14T19:38:58.016Z,18.68
2022-10-14T19:41:26.346Z,18.67
2022-10-14T19:43:53.780Z,18.65
2022-10-14T19:46:23.267Z,18.64
2022-10-14T19:48:50.065Z,18.67
2022-10-14T19:51:18.195Z,18.68
2022-10-14T19:53:45.293Z,18.68
2022-10-14T19:56:13.233Z,18.69
2022-10-14T19:58:43.889Z,18.65
2022-10-14T20:01:17.042Z,18.64
2022-10-14T20:03:44.251Z,18.66
2022-10-14T20:06:12.455Z,18.67
2022-10-14T20:08:39.551Z,18.68
2022-10-14T20:11:08.534Z,18.68
2022-10-14T20:13:35.476Z,18.69
2022-10-14T20:16:02.545Z,18.70
2022-10-14T20:18:29.884Z,18.71
2022-10-14T20:20:56.942Z,18.72
2022-10-14T20:23:24.800Z,18.73
2022-10-14T20:25:51.691Z,18.73
2022-10-14T20:28:21.474Z,18.76
2022-10-14T20:30:48.397Z,18.76
2022-10-14T20:33:15.085Z,18.77
2022-10-14T20:35:41.770Z,18.76
2022-10-14T20:38:08.483Z,18.75
2022-10-14T20:40:36.682Z,18.75
2022-10-14T20:43:03.918Z,18.77
2022-10-14T20:45:32.344Z,18.77
2022-10-14T20:48:00.424Z,18.79
2022-10-14T20:50:27.554Z,18.81
2022-10-14T20:52:54.897Z,18.82
2022-10-14T20:55:21.720Z,18.82
2022-10-14T20:57:48.452Z,18.83
2022-10-14T21:00:15.770Z,18.80
2022-10-14T21:05:10.060Z,18.81
2022-10-14T21:07:36.747Z,18.81
2022-10-14T21:10:03.791Z,18.82
2022-10-14T21:12:30.583Z,18.81
2022-10-14T21:14:57.296Z,18.82
2022-10-14T21:17:24.102Z,18.82
2022-10-14T21:19:50.867Z,18.84
2022-10-14T21:22:17.512Z,18.83
2022-10-14T21:24:44.303Z,18.83
2022-10-14T21:27:10.971Z,18.87
2022-10-14T21:29:37.714Z,18.87
2022-10-14T21:32:04.639Z,18.87
2022-10-14T21:34:31.611Z,18.89
2022-10-14T21:36:58.419Z,18.88
2022-10-14T21:39:25.161Z,18.89
2022-10-14T21:41:52.111Z,18.92
2022-10-14T21:44:20.376Z,18.92
2022-10-14T21:46:47.821Z,18.89
2022-10-14T21:49:15.273Z,18.90
2022-10-14T21:51:41.961Z,18.91
2022-10-14T21:54:12.219Z,18.89
2022-10-14T21:56:39.405Z,18.91
2022-10-14T21:59:06.779Z,18.92
2022-10-14T22:01:34.020Z,18.92
2022-10-14T22:04:05.560Z,18.93
2022-10-14T22:06:34.070Z,18.95
2022-10-14T22:09:02.168Z,18.95
2022-10-14T22:11:34.826Z,18.95
2022-10-14T22:14:03.308Z,18.96
2022-10-14T22:16:30.186Z,18.96
2022-10-14T22:18:59.689Z,18.97
2022-10-14T22:21:28.098Z,18.97
2022-10-14T22:23:54.911Z,18.98
2022-10-14T22:26:23.365Z,18.98
2022-10-14T22:28:50.955Z,18.99
2022-10-14T22:31:20.122Z,19.00
2022-10-14T22:33:48.174Z,18.99
2022-10-14T22:36:19.408Z,19.00
2022-10-14T22:38:50.106Z,19.00
2022-10-14T22:41:17.901Z,18.99
2022-10-14T22:43:55.591Z,18.98
2022-10-14T22:46:24.767Z,19.00
2022-10-14T22:48:56.831Z,19.00
2022-10-14T22:53:53.916Z,19.02
2022-10-14T22:56:22.711Z,19.02
2022-10-14T22:58:57.280Z,19.01
2022-10-14T23:01:24.222Z,19.01
2022-10-14T23:03:51.061Z,19.00
2022-10-14T23:06:17.753Z,19.02
2022-10-14T23:08:44.745Z,19.03
2022-10-14T23:11:19.737Z,19.03
2022-10-14T23:13:46.911Z,19.06
2022-10-14T23:16:17.798Z,19.04
2022-10-14T23:18:45.813Z,19.05
2022-10-14T23:21:19.361Z,19.04
2022-10-14T23:23:47.716Z,19.05
2022-10-14T23:26:21.188Z,19.05
2022-10-14T23:28:49.550Z,19.05
2022-10-14T23:31:18.455Z,19.05
2022-10-14T23:33:45.238Z,19.05
2022-10-14T23:36:13.646Z,19.06
2022-10-14T23:38:40.823Z,19.05
2022-10-14T23:41:08.706Z,19.05
2022-10-14T23:43:35.570Z,19.06
2022-10-14T23:46:02.587Z,19.07
2022-10-14T23:48:29.499Z,19.09
2022-10-14T23:50:56.171Z,19.09
2022-10-14T23:53:23.046Z,19.08
2022-10-14T23:55:49.784Z,19.08
2022-10-14T23:58:16.629Z,19.09
